Accueil
METAR-TAF:

METAR-TAF

Aéroports :

Ponape, Micronésie

NWS Office

latitude: 06-58N, longitude: 158-13E, altitude: 39 m

Observation

Le bulletin a été fait il y a 1 heure et 4 minutes, à 05:54 UTC
Vent 5 kt de nord-est
Température 28°C
Humidité 84%
Pression 1010 hPa
Visibilité: 24.1 km
Nuages épars à une hauteur de 1800 ft
Nuages épars à une hauteur de 13000 ft
Ciel couvert à une hauteur de 30000 ft

METAR: PTTP 270554Z 05005KT 15SM SCT018 SCT130 OVC300 28/25 A2983 RMK SHRAB21E29 SLP100 60002 8/171 T02830246 10300 20267 57008

Heure: 17:58 (06:58 UTC)


TAF: absent

Observations et prévisions météorologiques de plus de 4000 aéroports (messages METAR et TAF).

Les stations disponibles sont représentées par des disques jaunes et rouges sur la carte.

Passer la souris dessus pour voir le nom de la station.

Cliquer dessus pour voir les observations et prévisions météorologiques.

Pour changer de carte: cliquez sur les boutons verts avec une croix noire pour zoomer, sur le bouton vert avec un tiret pour effectuer un zoom arrière, ou sur les flèches vertes pour les cartes adjacentes.


METAR-TAF: